createdAt,value
2018-04-14T00:00:37.949Z,81.16
2018-04-14T00:03:04.264Z,81.11
2018-04-14T00:05:30.556Z,80.87
2018-04-14T00:07:56.866Z,80.98
2018-04-14T00:10:23.136Z,81.42
2018-04-14T00:12:50.171Z,80.93
2018-04-14T00:15:16.494Z,80.90
2018-04-14T00:17:42.740Z,80.84
2018-04-14T00:20:09.754Z,80.42
2018-04-14T00:22:36.070Z,80.06
2018-04-14T00:25:02.423Z,79.72
2018-04-14T00:27:28.694Z,79.75
2018-04-14T00:29:55.243Z,78.98
2018-04-14T00:32:21.542Z,79.30
2018-04-14T00:34:48.839Z,79.11
2018-04-14T00:37:15.143Z,79.08
2018-04-14T00:39:42.235Z,79.72
2018-04-14T00:42:08.472Z,79.53
2018-04-14T00:44:34.823Z,79.95
2018-04-14T00:47:01.147Z,78.89
2018-04-14T00:49:27.474Z,78.16
2018-04-14T00:51:53.801Z,78.58
2018-04-14T00:54:20.089Z,78.06
2018-04-14T00:56:47.549Z,78.11
2018-04-14T00:59:13.838Z,78.55
2018-04-14T01:01:40.169Z,78.89
2018-04-14T01:04:06.475Z,78.15
2018-04-14T01:06:32.767Z,78.51
2018-04-14T01:08:59.031Z,78.52
2018-04-14T01:11:25.339Z,78.77
2018-04-14T01:13:51.638Z,78.17
2018-04-14T01:16:18.662Z,78.42
2018-04-14T01:18:44.970Z,78.12
2018-04-14T01:21:11.246Z,78.46
2018-04-14T01:23:38.302Z,77.34
2018-04-14T01:26:04.662Z,76.71
2018-04-14T01:28:31.018Z,76.15
2018-04-14T01:30:57.315Z,76.37
2018-04-14T01:33:23.599Z,76.49
2018-04-14T01:35:49.902Z,76.25
2018-04-14T01:38:16.251Z,76.05
2018-04-14T01:40:42.616Z,76.15
2018-04-14T01:43:09.642Z,75.38
2018-04-14T01:45:36.897Z,75.16
2018-04-14T01:48:03.441Z,75.21
2018-04-14T01:50:30.485Z,74.83
2018-04-14T01:52:56.851Z,75.04
2018-04-14T01:55:23.104Z,74.95
2018-04-14T01:57:49.444Z,75.09
2018-04-14T02:00:15.841Z,75.25
2018-04-14T02:02:43.221Z,74.96
2018-04-14T02:05:09.512Z,74.30
2018-04-14T02:07:36.533Z,75.30
2018-04-14T02:10:02.855Z,75.84
2018-04-14T02:12:29.139Z,75.91
2018-04-14T02:14:55.431Z,76.31
2018-04-14T02:17:21.702Z,77.09
2018-04-14T02:19:47.957Z,78.58
2018-04-14T02:22:14.243Z,79.29
2018-04-14T02:24:41.262Z,78.97
2018-04-14T02:27:08.315Z,80.46
2018-04-14T02:29:34.614Z,80.70
2018-04-14T02:32:00.905Z,80.97
2018-04-14T02:34:27.202Z,81.35
2018-04-14T02:36:53.505Z,81.91
2018-04-14T02:39:19.769Z,82.09
2018-04-14T02:41:46.815Z,81.79
2018-04-14T02:44:13.833Z,81.12
2018-04-14T02:46:40.253Z,80.00
2018-04-14T02:49:06.599Z,80.42
2018-04-14T02:51:32.876Z,80.49
2018-04-14T02:53:59.906Z,79.52
2018-04-14T02:56:26.202Z,80.27
2018-04-14T02:58:52.482Z,80.28
2018-04-14T03:01:19.533Z,80.37
2018-04-14T03:03:46.617Z,80.44
2018-04-14T03:06:12.871Z,80.32
2018-04-14T03:08:39.171Z,79.99
2018-04-14T03:11:05.455Z,78.99
2018-04-14T03:13:31.752Z,78.95
2018-04-14T03:15:58.065Z,77.09
2018-04-14T03:18:24.349Z,77.37
2018-04-14T03:20:51.389Z,77.26
2018-04-14T03:23:17.651Z,76.64
2018-04-14T03:25:43.966Z,76.11
2018-04-14T03:28:11.046Z,75.95
2018-04-14T03:30:37.396Z,76.00
2018-04-14T03:33:03.728Z,75.37
2018-04-14T03:35:30.018Z,75.13
2018-04-14T03:37:57.060Z,75.73
2018-04-14T03:40:24.131Z,75.38
2018-04-14T03:42:50.418Z,75.82
2018-04-14T03:45:16.742Z,76.43
2018-04-14T03:47:43.067Z,76.26
2018-04-14T03:50:09.364Z,76.45
2018-04-14T03:52:35.649Z,75.29
2018-04-14T03:55:02.731Z,75.31
2018-04-14T03:57:29.063Z,75.70
2018-04-14T03:59:55.364Z,75.26
2018-04-14T04:02:22.670Z,74.78
2018-04-14T04:04:48.960Z,74.42
2018-04-14T04:07:16.080Z,73.41
2018-04-14T04:09:42.445Z,73.48
2018-04-14T04:12:09.495Z,73.49
2018-04-14T04:14:36.521Z,73.05
2018-04-14T04:17:03.595Z,73.24
2018-04-14T04:19:48.780Z,72.65
2018-04-14T04:25:43.426Z,72.34
2018-04-14T04:28:09.741Z,72.47
2018-04-14T04:30:36.054Z,72.08
2018-04-14T04:33:02.345Z,71.48
2018-04-14T04:35:28.637Z,71.23
2018-04-14T04:37:54.939Z,71.55
2018-04-14T04:40:22.075Z,71.39
2018-04-14T04:42:49.099Z,71.37
2018-04-14T04:45:15.416Z,70.43
2018-04-14T04:47:41.712Z,70.57
2018-04-14T04:50:08.038Z,70.38
2018-04-14T04:52:34.352Z,69.87
2018-04-14T04:55:01.408Z,69.58
2018-04-14T04:57:27.731Z,69.05
2018-04-14T04:59:54.776Z,68.96
2018-04-14T05:02:22.749Z,68.66
2018-04-14T05:04:49.792Z,68.91
2018-04-14T05:07:16.842Z,67.65
2018-04-14T05:09:43.922Z,68.34
2018-04-14T05:12:10.249Z,67.71
2018-04-14T05:14:36.553Z,67.74
2018-04-14T05:17:03.654Z,67.74
2018-04-14T05:19:29.985Z,67.97
2018-04-14T05:21:56.257Z,67.45
2018-04-14T05:24:23.319Z,67.40
2018-04-14T05:26:49.637Z,66.70
2018-04-14T05:29:16.715Z,66.22
2018-04-14T05:31:43.023Z,65.50
2018-04-14T05:34:10.116Z,65.11
2018-04-14T05:36:36.454Z,65.49
2018-04-14T05:39:02.764Z,64.68
2018-04-14T05:41:29.122Z,64.78
2018-04-14T05:43:55.413Z,64.67
2018-04-14T05:46:21.767Z,65.16
2018-04-14T05:48:48.985Z,64.76
2018-04-14T05:51:16.051Z,64.57
2018-04-14T05:53:43.240Z,65.65
2018-04-14T05:56:09.560Z,65.79
2018-04-14T05:58:35.852Z,65.25
2018-04-14T06:01:02.299Z,65.33
2018-04-14T06:03:28.620Z,64.65
2018-04-14T06:05:55.003Z,63.60
2018-04-14T06:08:21.306Z,63.34
2018-04-14T06:10:47.618Z,62.53
2018-04-14T06:13:13.965Z,63.22
2018-04-14T06:15:40.329Z,62.40
2018-04-14T06:18:06.630Z,62.49
2018-04-14T06:20:32.967Z,62.52
2018-04-14T06:22:59.259Z,62.24
2018-04-14T06:25:26.343Z,61.95
2018-04-14T06:27:52.632Z,61.99
2018-04-14T06:30:19.685Z,61.88
2018-04-14T06:32:46.746Z,61.50
2018-04-14T06:35:13.044Z,62.50
2018-04-14T06:37:40.144Z,61.49
2018-04-14T06:40:06.447Z,61.66
2018-04-14T06:42:32.812Z,62.03
2018-04-14T06:44:59.355Z,62.47
2018-04-14T06:47:32.234Z,64.18
2018-04-14T06:49:58.605Z,65.43
2018-04-14T06:52:24.892Z,67.36
2018-04-14T06:54:51.187Z,67.40
2018-04-14T06:57:18.278Z,67.52
2018-04-14T06:59:44.570Z,67.21
2018-04-14T07:02:11.630Z,64.94
2018-04-14T07:04:38.056Z,63.68
2018-04-14T07:07:04.335Z,61.27
2018-04-14T07:09:30.621Z,61.44
2018-04-14T07:11:56.931Z,60.08
2018-04-14T07:14:24.022Z,61.05
2018-04-14T07:16:50.270Z,60.45
2018-04-14T07:19:16.547Z,59.83
2018-04-14T07:21:43.578Z,59.57
2018-04-14T07:24:09.899Z,60.16
2018-04-14T07:26:36.315Z,59.50
2018-04-14T07:29:02.793Z,59.31
2018-04-14T07:31:29.814Z,57.19
2018-04-14T07:33:56.190Z,55.79
2018-04-14T07:36:22.506Z,54.50
2018-04-14T07:38:49.586Z,53.23
2018-04-14T07:41:15.865Z,51.16
2018-04-14T07:43:42.185Z,50.35
2018-04-14T07:46:09.945Z,48.64
2018-04-14T07:48:36.242Z,48.33
2018-04-14T07:51:02.532Z,46.27
2018-04-14T07:53:29.616Z,47.74
2018-04-14T07:55:55.909Z,45.08
2018-04-14T07:58:23.004Z,45.03
2018-04-14T08:00:49.296Z,44.00
2018-04-14T08:03:16.361Z,44.21
2018-04-14T08:05:42.687Z,45.08
2018-04-14T08:08:09.011Z,46.04
2018-04-14T08:10:36.117Z,43.98
2018-04-14T08:13:02.372Z,43.27
2018-04-14T08:15:30.357Z,43.80
2018-04-14T08:17:57.483Z,44.15
2018-04-14T08:20:23.766Z,44.04
2018-04-14T08:22:50.032Z,44.13
2018-04-14T08:25:16.355Z,43.17
2018-04-14T08:27:43.389Z,44.56
2018-04-14T08:30:09.695Z,43.10
2018-04-14T08:32:35.991Z,44.93
2018-04-14T08:35:02.323Z,44.40
2018-04-14T08:37:29.482Z,44.05
2018-04-14T08:39:55.847Z,44.31
2018-04-14T08:42:22.240Z,42.94
2018-04-14T08:44:48.580Z,43.50
2018-04-14T08:47:15.609Z,43.81
2018-04-14T08:49:41.865Z,43.44
2018-04-14T08:52:08.119Z,43.30
2018-04-14T08:54:34.410Z,43.83
2018-04-14T08:57:01.508Z,43.53
2018-04-14T08:59:27.883Z,42.60
2018-04-14T09:01:54.237Z,43.03
2018-04-14T09:04:20.533Z,42.98
2018-04-14T09:06:46.807Z,42.49
2018-04-14T09:09:13.111Z,42.87
2018-04-14T09:11:40.201Z,42.76
2018-04-14T09:14:06.539Z,41.65
2018-04-14T09:16:32.840Z,40.86
2018-04-14T09:18:59.174Z,40.78
2018-04-14T09:21:25.487Z,40.45
2018-04-14T09:23:52.566Z,40.29
2018-04-14T09:26:18.893Z,39.58
2018-04-14T09:28:45.196Z,39.55
2018-04-14T09:31:12.287Z,39.44
2018-04-14T09:33:38.587Z,39.20
2018-04-14T09:36:05.655Z,39.78
2018-04-14T09:38:31.983Z,39.85
2018-04-14T09:40:58.340Z,38.71
2018-04-14T09:43:24.606Z,38.49
2018-04-14T09:45:50.875Z,39.13
2018-04-14T09:48:17.163Z,37.89
2018-04-14T09:50:43.465Z,36.11
2018-04-14T09:53:09.728Z,36.86
2018-04-14T09:55:36.058Z,37.38
2018-04-14T09:58:02.418Z,37.66
2018-04-14T10:00:29.453Z,38.57
2018-04-14T10:02:59.559Z,37.92
2018-04-14T10:05:25.881Z,38.23
2018-04-14T10:07:52.207Z,37.98
2018-04-14T10:10:18.803Z,37.87
2018-04-14T10:12:45.151Z,36.93
2018-04-14T10:15:11.442Z,36.46
2018-04-14T10:17:38.505Z,35.48
2018-04-14T10:20:04.812Z,36.36
2018-04-14T10:22:31.901Z,36.61
2018-04-14T10:24:58.165Z,35.38
2018-04-14T10:27:24.450Z,35.74
2018-04-14T10:29:50.791Z,35.95
2018-04-14T10:32:17.133Z,36.23
2018-04-14T10:34:44.195Z,35.52
2018-04-14T10:37:10.535Z,35.47
2018-04-14T10:39:36.795Z,35.17
2018-04-14T10:42:03.876Z,34.43
2018-04-14T10:44:30.259Z,33.03
2018-04-14T10:46:56.587Z,32.58
2018-04-14T10:49:22.889Z,32.85
2018-04-14T10:51:49.232Z,32.66
2018-04-14T10:54:15.548Z,33.28
2018-04-14T10:56:41.868Z,33.03
2018-04-14T10:59:08.267Z,33.05
2018-04-14T11:01:35.524Z,33.62
2018-04-14T11:04:02.677Z,33.32
2018-04-14T11:06:29.752Z,32.78
2018-04-14T11:08:56.086Z,32.01
2018-04-14T11:11:22.425Z,32.03
2018-04-14T11:13:48.738Z,31.73
2018-04-14T11:16:15.091Z,30.39
2018-04-14T11:18:41.414Z,30.24
2018-04-14T11:21:07.734Z,31.13
2018-04-14T11:23:34.082Z,30.12
2018-04-14T11:26:00.375Z,29.19
2018-04-14T11:28:27.462Z,28.71
2018-04-14T11:30:53.776Z,27.52
2018-04-14T11:33:20.094Z,28.41
2018-04-14T11:35:46.390Z,29.52
2018-04-14T11:38:12.817Z,30.50
2018-04-14T11:40:39.139Z,29.35
2018-04-14T11:43:05.428Z,26.84
2018-04-14T11:45:31.775Z,25.50
2018-04-14T11:47:58.091Z,25.51
2018-04-14T11:50:24.518Z,26.11
2018-04-14T11:52:50.811Z,27.08
2018-04-14T11:55:17.067Z,27.13
2018-04-14T11:57:44.082Z,26.81
2018-04-14T12:00:10.421Z,27.16
2018-04-14T12:02:36.731Z,25.09
2018-04-14T12:05:03.043Z,25.22
2018-04-14T12:07:29.369Z,22.11
2018-04-14T12:09:56.646Z,22.27
2018-04-14T12:12:22.998Z,21.06
2018-04-14T12:14:49.307Z,19.75
2018-04-14T12:17:15.613Z,18.05
2018-04-14T12:19:41.875Z,15.04
2018-04-14T12:22:08.231Z,15.34
2018-04-14T12:24:34.551Z,16.43
2018-04-14T12:27:00.850Z,16.84
2018-04-14T12:29:27.160Z,14.74
2018-04-14T12:31:53.487Z,14.35
2018-04-14T12:34:19.823Z,13.80
2018-04-14T12:36:47.155Z,17.43
2018-04-14T12:39:14.220Z,18.12
2018-04-14T12:41:40.545Z,15.45
2018-04-14T12:44:06.864Z,13.49
2018-04-14T12:46:33.995Z,15.69
2018-04-14T12:49:00.291Z,17.56
2018-04-14T12:51:26.625Z,20.74
2018-04-14T12:53:52.928Z,22.81
2018-04-14T12:56:19.222Z,21.99
2018-04-14T12:58:46.271Z,21.00
2018-04-14T13:01:12.598Z,18.99
2018-04-14T13:03:39.046Z,18.06
2018-04-14T13:06:06.126Z,16.45
2018-04-14T13:08:32.448Z,18.19
2018-04-14T13:10:58.820Z,19.48
2018-04-14T13:13:25.195Z,17.36
2018-04-14T13:15:52.249Z,15.19
2018-04-14T13:18:18.628Z,15.81
2018-04-14T13:20:45.370Z,16.12
2018-04-14T13:23:11.684Z,14.25
2018-04-14T13:25:38.297Z,14.80
2018-04-14T13:28:04.583Z,14.20
2018-04-14T13:30:30.881Z,13.99
2018-04-14T13:32:57.181Z,15.53
2018-04-14T13:35:23.465Z,14.50
2018-04-14T13:37:49.784Z,18.06
2018-04-14T13:40:16.137Z,19.51
2018-04-14T13:42:43.942Z,20.73
2018-04-14T13:45:10.993Z,20.53
2018-04-14T13:47:37.329Z,16.01
2018-04-14T13:50:03.653Z,14.48
2018-04-14T13:52:29.951Z,13.65
2018-04-14T13:54:56.273Z,12.00
2018-04-14T13:57:22.681Z,12.43
2018-04-14T13:59:49.002Z,17.88
2018-04-14T14:02:15.291Z,17.51
2018-04-14T14:04:42.359Z,13.38
2018-04-14T14:07:08.630Z,11.16
2018-04-14T14:09:34.923Z,12.96
2018-04-14T14:12:01.198Z,13.62
2018-04-14T14:14:27.554Z,12.14
2018-04-14T14:16:53.959Z,13.04
2018-04-14T14:19:20.298Z,10.82
2018-04-14T14:21:46.626Z,10.78
2018-04-14T14:24:12.942Z,11.93
2018-04-14T14:26:39.267Z,11.07
2018-04-14T14:29:05.559Z,11.49
2018-04-14T14:31:32.648Z,12.19
2018-04-14T14:33:58.966Z,11.09
2018-04-14T14:36:25.370Z,10.34
2018-04-14T14:38:52.556Z,11.75
2018-04-14T14:41:19.037Z,12.49
2018-04-14T14:43:45.291Z,11.51
2018-04-14T14:46:12.315Z,10.30
2018-04-14T14:48:38.941Z,9.93
2018-04-14T14:51:05.203Z,10.52
2018-04-14T14:53:32.312Z,10.50
2018-04-14T14:55:58.619Z,10.00
2018-04-14T14:58:24.922Z,10.32
2018-04-14T15:00:52.035Z,11.42
2018-04-14T15:03:18.306Z,10.58
2018-04-14T15:05:45.434Z,9.97
2018-04-14T15:08:12.465Z,9.91
2018-04-14T15:10:38.757Z,11.58
2018-04-14T15:13:05.039Z,11.19
2018-04-14T15:15:31.319Z,9.55
2018-04-14T15:17:57.582Z,7.70
2018-04-14T15:20:24.012Z,8.70
2018-04-14T15:22:50.334Z,8.70
2018-04-14T15:25:16.652Z,8.87
2018-04-14T15:27:42.906Z,10.47
2018-04-14T15:30:09.229Z,11.43
2018-04-14T15:32:35.535Z,12.11
2018-04-14T15:35:01.839Z,13.91
2018-04-14T15:37:28.138Z,16.12
2018-04-14T15:39:54.551Z,17.54
2018-04-14T15:42:20.840Z,19.47
2018-04-14T15:44:47.188Z,15.56
2018-04-14T15:47:13.504Z,13.98
2018-04-14T15:49:39.866Z,14.51
2018-04-14T15:52:06.181Z,12.63
2018-04-14T15:54:32.455Z,11.17
2018-04-14T15:56:58.737Z,11.27
2018-04-14T15:59:25.030Z,10.59
2018-04-14T16:01:52.086Z,11.19
2018-04-14T16:04:19.196Z,13.83
2018-04-14T16:06:45.838Z,14.20
2018-04-14T16:09:12.295Z,13.50
2018-04-14T16:11:38.582Z,12.12
2018-04-14T16:14:04.901Z,11.97
2018-04-14T16:16:31.268Z,12.43
2018-04-14T16:18:57.555Z,12.02
2018-04-14T16:21:23.934Z,13.57
2018-04-14T16:23:50.215Z,14.83
2018-04-14T16:26:16.529Z,16.19
2018-04-14T16:28:43.593Z,18.58
2018-04-14T16:31:09.977Z,19.41
2018-04-14T16:33:36.302Z,20.14
2018-04-14T16:36:02.631Z,20.55
2018-04-14T16:38:28.981Z,20.99
2018-04-14T16:40:55.342Z,19.81
2018-04-14T16:43:21.624Z,17.36
2018-04-14T16:45:47.969Z,16.41
2018-04-14T16:48:14.339Z,16.51
2018-04-14T16:50:40.674Z,16.37
2018-04-14T16:53:07.020Z,17.54
2018-04-14T16:55:33.434Z,17.00
2018-04-14T16:57:59.770Z,19.30
2018-04-14T17:00:26.142Z,21.12
2018-04-14T17:02:52.595Z,22.70
2018-04-14T17:05:19.073Z,22.52
2018-04-14T17:07:45.425Z,23.34
2018-04-14T17:10:11.933Z,22.96
2018-04-14T17:12:38.306Z,24.31
2018-04-14T17:15:04.827Z,26.53
2018-04-14T17:17:31.922Z,27.84
2018-04-14T17:19:58.384Z,28.00
2018-04-14T17:22:25.435Z,28.15
2018-04-14T17:24:51.813Z,29.09
2018-04-14T17:27:18.231Z,29.95
2018-04-14T17:29:44.518Z,30.62
2018-04-14T17:32:11.990Z,31.16
2018-04-14T17:34:38.349Z,31.45
2018-04-14T17:37:04.687Z,32.08
2018-04-14T17:39:31.086Z,32.63
2018-04-14T17:41:57.367Z,33.12
2018-04-14T17:44:23.950Z,33.43
2018-04-14T17:46:50.968Z,33.48
2018-04-14T17:49:17.253Z,33.88
2018-04-14T17:51:48.332Z,34.29
2018-04-14T17:54:14.750Z,34.91
2018-04-14T17:56:41.139Z,35.07
2018-04-14T17:59:07.618Z,36.35
2018-04-14T18:01:34.229Z,37.45
2018-04-14T18:04:11.711Z,37.60
2018-04-14T18:06:39.476Z,38.47
2018-04-14T18:09:08.350Z,38.86
2018-04-14T18:11:34.860Z,39.46
2018-04-14T18:14:01.190Z,41.25
2018-04-14T18:16:28.279Z,42.49
2018-04-14T18:18:54.652Z,43.75
2018-04-14T18:21:20.958Z,44.38
2018-04-14T18:23:47.273Z,45.00
2018-04-14T18:26:13.599Z,45.51
2018-04-14T18:28:39.957Z,45.91
2018-04-14T18:31:06.514Z,46.54
2018-04-14T18:33:32.994Z,46.46
2018-04-14T18:36:00.383Z,46.75
2018-04-14T18:38:26.788Z,46.55
2018-04-14T18:40:53.864Z,46.41
2018-04-14T18:43:20.173Z,46.56
2018-04-14T18:45:46.458Z,46.52
2018-04-14T18:48:12.749Z,46.96
2018-04-14T18:50:39.175Z,46.71
2018-04-14T18:53:05.520Z,47.13
2018-04-14T18:55:32.038Z,47.66
2018-04-14T18:57:58.367Z,48.01
2018-04-14T19:00:24.809Z,48.02
2018-04-14T19:02:51.113Z,47.16
2018-04-14T19:05:18.227Z,47.20
2018-04-14T19:07:44.578Z,47.30
2018-04-14T19:10:11.101Z,47.09
2018-04-14T19:12:37.534Z,46.92
2018-04-14T19:15:03.826Z,47.72
2018-04-14T19:17:30.084Z,48.68
2018-04-14T19:19:56.404Z,49.29
2018-04-14T19:22:22.712Z,49.91
2018-04-14T19:24:49.056Z,50.43
2018-04-14T19:27:15.404Z,50.63
2018-04-14T19:29:41.774Z,50.83
2018-04-14T19:32:08.098Z,50.43
2018-04-14T19:34:34.447Z,50.39
2018-04-14T19:37:01.585Z,50.75
2018-04-14T19:39:27.958Z,51.23
2018-04-14T19:41:54.274Z,52.08
2018-04-14T19:44:20.666Z,53.06
2018-04-14T19:46:47.102Z,53.08
2018-04-14T19:49:13.469Z,53.81
2018-04-14T19:51:40.525Z,53.31
2018-04-14T19:54:06.859Z,53.03
2018-04-14T19:56:33.153Z,53.27
2018-04-14T19:58:59.509Z,53.62
2018-04-14T20:01:26.588Z,53.79
2018-04-14T20:03:53.822Z,53.80
2018-04-14T20:06:20.929Z,54.10
2018-04-14T20:08:47.210Z,54.63
2018-04-14T20:11:13.544Z,54.71
2018-04-14T20:13:39.911Z,54.86
2018-04-14T20:16:06.227Z,54.86
2018-04-14T20:18:32.580Z,54.88
2018-04-14T20:20:58.946Z,55.04
2018-04-14T20:23:25.995Z,55.22
2018-04-14T20:25:52.320Z,55.64
2018-04-14T20:28:19.381Z,55.41
2018-04-14T20:30:45.731Z,55.55
2018-04-14T20:33:12.025Z,55.62
2018-04-14T20:35:39.078Z,55.73
2018-04-14T20:38:07.031Z,56.25
2018-04-14T20:40:33.431Z,56.38
2018-04-14T20:42:59.826Z,56.43
2018-04-14T20:45:26.072Z,56.31
2018-04-14T20:47:52.348Z,56.49
2018-04-14T20:50:18.767Z,56.57
2018-04-14T20:52:45.137Z,56.65
2018-04-14T20:55:11.375Z,57.02
2018-04-14T20:57:38.362Z,57.40
2018-04-14T21:00:04.670Z,57.76
2018-04-14T21:02:31.168Z,58.12
2018-04-14T21:04:58.178Z,58.21
2018-04-14T21:07:24.516Z,58.28
2018-04-14T21:09:50.851Z,58.23
2018-04-14T21:12:17.156Z,58.63
2018-04-14T21:14:43.624Z,58.41
2018-04-14T21:17:10.110Z,58.36
2018-04-14T21:19:36.463Z,58.15
2018-04-14T21:22:02.769Z,58.07
2018-04-14T21:24:29.023Z,58.27
2018-04-14T21:26:55.313Z,58.86
2018-04-14T21:29:22.357Z,58.55
2018-04-14T21:31:49.431Z,58.40
2018-04-14T21:34:15.756Z,58.19
2018-04-14T21:36:42.096Z,58.34
2018-04-14T21:39:08.448Z,58.63
2018-04-14T21:41:34.767Z,57.86
2018-04-14T21:44:01.065Z,58.04
2018-04-14T21:46:28.155Z,57.88
2018-04-14T21:48:54.493Z,57.50
2018-04-14T21:51:20.822Z,57.29
2018-04-14T21:53:48.021Z,57.26
2018-04-14T21:56:14.307Z,57.27
2018-04-14T21:58:40.638Z,57.46
2018-04-14T22:01:06.979Z,57.47
2018-04-14T22:03:33.330Z,57.77
2018-04-14T22:05:59.670Z,58.15
2018-04-14T22:08:26.761Z,58.31
2018-04-14T22:10:53.102Z,58.61
2018-04-14T22:13:19.410Z,58.83
2018-04-14T22:15:45.712Z,58.66
2018-04-14T22:18:12.038Z,59.36
2018-04-14T22:20:38.352Z,59.55
2018-04-14T22:23:04.641Z,59.70
2018-04-14T22:25:31.024Z,60.00
2018-04-14T22:27:57.319Z,60.27
2018-04-14T22:30:23.614Z,60.51
2018-04-14T22:32:50.697Z,60.95
2018-04-14T22:35:17.028Z,61.51
2018-04-14T22:37:43.378Z,61.69
2018-04-14T22:40:09.644Z,61.41
2018-04-14T22:42:36.693Z,61.47
2018-04-14T22:45:03.851Z,61.11
2018-04-14T22:47:30.943Z,61.65
2018-04-14T22:49:57.237Z,61.96
2018-04-14T22:52:24.249Z,62.36
2018-04-14T22:54:50.542Z,62.68
2018-04-14T22:57:16.858Z,62.44
2018-04-14T22:59:43.188Z,62.61
2018-04-14T23:02:09.503Z,62.83
2018-04-14T23:04:36.540Z,63.27
2018-04-14T23:07:03.593Z,63.46
2018-04-14T23:09:30.613Z,63.58
2018-04-14T23:11:56.947Z,63.57
2018-04-14T23:14:23.354Z,63.61
2018-04-14T23:16:49.615Z,63.92
2018-04-14T23:19:15.938Z,63.97
2018-04-14T23:21:43.017Z,64.10
2018-04-14T23:24:10.029Z,64.27
2018-04-14T23:26:36.310Z,64.49
2018-04-14T23:29:02.641Z,64.52
2018-04-14T23:31:28.901Z,64.77
2018-04-14T23:33:55.180Z,65.01
2018-04-14T23:36:22.198Z,64.86
2018-04-14T23:38:48.459Z,64.78
2018-04-14T23:41:15.463Z,65.06
2018-04-14T23:43:41.739Z,65.46
2018-04-14T23:46:08.786Z,65.38
2018-04-14T23:48:35.825Z,65.44
2018-04-14T23:51:02.873Z,65.77
2018-04-14T23:53:36.785Z,65.75
2018-04-14T23:56:03.876Z,65.81
2018-04-14T23:58:30.162Z,65.94
